Time;durP1;ratioP1;P1;durP2;ratioP2;P2;SDS_P1;SDS_P2;PMS_P1;PMS_P2;Temp;Humidity;BMP_temperature;BMP_pressure;BME280_temperature;BME280_humidity;BME280_pressure;Samples;Min_cycle;Max_cycle;Signal;HPM_P1;HPM_P2
2023/05/20 00:01:11;;;;;;;;;;;;;;;;;;5177614;27;1431;-59
2023/05/20 00:03:39;;;;;;;;;;;;;;;;;;5177396;27;1565;-58
2023/05/20 00:06:06;;;;;;;;;;;;;;;;;;5177553;27;1832;-61
2023/05/20 00:08:33;;;;;;;;;;;;;;;;;;5177478;27;1780;-62
2023/05/20 00:11:00;;;;;;;;;;;;;;;;;;5177151;27;1982;-52
2023/05/20 00:13:27;;;;;;;;;;;;;;;;;;5177269;27;2062;-63
2023/05/20 00:15:55;;;;;;;;;;;;;;;;;;5177126;27;1506;-63
2023/05/20 00:18:22;;;;;;;;;;;;;;;;;;5177159;27;1883;-62
2023/05/20 00:20:49;;;;;;;;;;;;;;;;;;5177136;27;1592;-54
2023/05/20 00:23:16;;;;;;;;;;;;;;;;;;5176833;27;1578;-56
2023/05/20 00:25:44;;;;;;;;;;;;;;;;;;5176719;27;1807;-61
2023/05/20 00:28:11;;;;;;;;;;;;;;;;;;5177153;27;1568;-59
2023/05/20 00:30:39;;;;;;;;;;;;;;;;;;5158272;27;2027;-59
2023/05/20 00:33:07;;;;;;;;;;;;;;;;;;5177026;27;1959;-61
2023/05/20 00:35:34;;;;;;;;;;;;;;;;;;5176931;27;1901;-49
2023/05/20 00:38:01;;;;;;;;;;;;;;;;;;5176650;27;2086;-57
2023/05/20 00:40:29;;;;;;;;;;;;;;;;;;5157647;27;1869;-52
2023/05/20 00:42:56;;;;;;;;;;;;;;;;;;5157760;27;1885;-57
2023/05/20 00:45:23;;;;;;;;;;;;;;;;;;5176516;27;2008;-64
2023/05/20 00:47:51;;;;;;;;;;;;;;;;;;5176302;27;1635;-54
2023/05/20 00:50:18;;;;;;;;;;;;;;;;;;5176363;27;1976;-58
2023/05/20 00:52:47;;;;;;;;;;;;;;;;;;5176139;27;1666;-62
2023/05/20 00:55:14;;;;;;;;;;;;;;;;;;5157701;27;1763;-60
2023/05/20 00:57:41;;;;;;;;;;;;;;;;;;5148594;27;2063;-52
2023/05/20 01:00:09;;;;;;;;;;;;;;;;;;5137047;27;1786;-60
2023/05/20 01:02:36;;;;;;;;;;;;;;;;;;5136498;27;1365;-59
2023/05/20 01:05:06;;;;;;;;;;;;;;;;;;5155088;27;2061;-50
2023/05/20 01:07:33;;;;;;;;;;;;;;;;;;5155083;27;1922;-56
2023/05/20 01:10:01;;;;;;;;;;;;;;;;;;5154219;27;1973;-55
2023/05/20 01:12:36;;;;;;;;;;;;;;;;;;5161757;27;2035;-57
2023/05/20 01:15:10;;;;;;;;;;;;;;;;;;5176035;27;1737;-57
2023/05/20 01:17:39;;;;;;;;;;;;;;;;;;5157133;27;2018;-61
2023/05/20 01:20:09;;;;;;;;;;;;;;;;;;5175860;27;1669;-55
2023/05/20 01:22:37;;;;;;;;;;;;;;;;;;5152440;27;1525;-57
2023/05/20 01:25:04;;;;;;;;;;;;;;;;;;5154865;27;2195;-56
2023/05/20 01:27:32;;;;;;;;;;;;;;;;;;5154783;27;1693;-52
2023/05/20 01:29:59;;;;;;;;;;;;;;;;;;5154931;27;1595;-63
2023/05/20 01:32:30;;;;;;;;;;;;;;;;;;5136118;27;1910;-58
2023/05/20 01:34:58;;;;;;;;;;;;;;;;;;5154849;27;1561;-55
2023/05/20 01:37:26;;;;;;;;;;;;;;;;;;5154626;27;1673;-57
2023/05/20 01:39:54;;;;;;;;;;;;;;;;;;5135929;27;1858;-52
2023/05/20 01:42:22;;;;;;;;;;;;;;;;;;5135803;27;1925;-55
2023/05/20 01:44:50;;;;;;;;;;;;;;;;;;5154490;27;1968;-59
2023/05/20 01:47:17;;;;;;;;;;;;;;;;;;5135710;27;2387;-54
2023/05/20 01:49:45;;;;;;;;;;;;;;;;;;5154648;27;1906;-56
2023/05/20 01:52:12;;;;;;;;;;;;;;;;;;5154599;27;1975;-53
2023/05/20 01:54:40;;;;;;;;;;;;;;;;;;5135614;27;1283;-51
2023/05/20 01:57:07;;;;;;;;;;;;;;;;;;5146653;27;2099;-54
2023/05/20 01:59:34;;;;;;;;;;;;;;;;;;5135231;27;1995;-56
2023/05/20 02:02:01;;;;;;;;;;;;;;;;;;5135592;27;1380;-58
2023/05/20 02:04:29;;;;;;;;;;;;;;;;;;5154004;27;1437;-62
2023/05/20 02:06:56;;;;;;;;;;;;;;;;;;5153923;27;1832;-61
2023/05/20 02:09:23;;;;;;;;;;;;;;;;;;5135708;27;2057;-58
2023/05/20 02:11:51;;;;;;;;;;;;;;;;;;5135463;27;2338;-56
2023/05/20 02:14:19;;;;;;;;;;;;;;;;;;5153695;27;1863;-57
2023/05/20 02:16:46;;;;;;;;;;;;;;;;;;5154464;27;1953;-62
2023/05/20 02:19:22;;;;;;;;;;;;;;;;;;5135104;27;1940;-58
2023/05/20 02:21:50;;;;;;;;;;;;;;;;;;5153761;27;1465;-58
2023/05/20 02:24:17;;;;;;;;;;;;;;;;;;5135331;27;1755;-54
2023/05/20 02:26:49;;;;;;;;;;;;;;;;;;5153630;27;1591;-61
2023/05/20 02:29:17;;;;;;;;;;;;;;;;;;5146858;27;1869;-55
2023/05/20 02:31:44;;;;;;;;;;;;;;;;;;5174632;27;2004;-58
2023/05/20 02:34:12;;;;;;;;;;;;;;;;;;5174412;27;2131;-59
2023/05/20 02:36:39;;;;;;;;;;;;;;;;;;5174582;27;1854;-58
2023/05/20 02:39:06;;;;;;;;;;;;;;;;;;5174090;27;2186;-56
2023/05/20 02:41:34;;;;;;;;;;;;;;;;;;5155793;27;1987;-56
2023/05/20 02:44:02;;;;;;;;;;;;;;;;;;5174134;27;1413;-58
2023/05/20 02:46:29;;;;;;;;;;;;;;;;;;5174146;27;1760;-60
2023/05/20 02:48:58;;;;;;;;;;;;;;;;;;5155296;27;1871;-51
2023/05/20 02:51:25;;;;;;;;;;;;;;;;;;5155340;27;2329;-63
2023/05/20 02:53:53;;;;;;;;;;;;;;;;;;5173998;27;1857;-59
2023/05/20 02:56:20;;;;;;;;;;;;;;;;;;5155853;27;1961;-54
2023/05/20 02:58:48;;;;;;;;;;;;;;;;;;5155202;27;1727;-50
2023/05/20 03:01:15;;;;;;;;;;;;;;;;;;5134336;27;1710;-52
2023/05/20 03:03:43;;;;;;;;;;;;;;;;;;5153049;27;1866;-57
2023/05/20 03:06:10;;;;;;;;;;;;;;;;;;5134204;27;1660;-55
2023/05/20 03:08:38;;;;;;;;;;;;;;;;;;5153309;27;2051;-59
2023/05/20 03:11:05;;;;;;;;;;;;;;;;;;5153134;27;1980;-60
2023/05/20 03:13:33;;;;;;;;;;;;;;;;;;5153177;27;1587;-55
2023/05/20 03:16:01;;;;;;;;;;;;;;;;;;5134250;27;1750;-57
2023/05/20 03:18:28;;;;;;;;;;;;;;;;;;5152794;27;1124;-56
2023/05/20 03:20:55;;;;;;;;;;;;;;;;;;5134053;27;1874;-55
2023/05/20 03:23:23;;;;;;;;;;;;;;;;;;5134351;27;2163;-53
2023/05/20 03:25:51;;;;;;;;;;;;;;;;;;5140246;27;2051;-61
2023/05/20 03:28:18;;;;;;;;;;;;;;;;;;5173844;27;2041;-57
2023/05/20 03:30:46;;;;;;;;;;;;;;;;;;5173771;27;1917;-52
2023/05/20 03:33:14;;;;;;;;;;;;;;;;;;5158602;27;1557;-59
2023/05/20 03:35:41;;;;;;;;;;;;;;;;;;5159253;27;2119;-60
2023/05/20 03:38:09;;;;;;;;;;;;;;;;;;5178023;27;1463;-59
2023/05/20 03:40:37;;;;;;;;;;;;;;;;;;5158866;27;1861;-55
2023/05/20 03:43:05;;;;;;;;;;;;;;;;;;5159340;27;2236;-59
2023/05/20 03:45:33;;;;;;;;;;;;;;;;;;5159058;27;1463;-58
2023/05/20 03:48:05;;;;;;;;;;;;;;;;;;5158971;27;1969;-61
2023/05/20 03:50:34;;;;;;;;;;;;;;;;;;5155345;27;2102;-60
2023/05/20 03:53:01;;;;;;;;;;;;;;;;;;5155392;27;1968;-58
2023/05/20 03:55:35;;;;;;;;;;;;;;;;;;5155450;27;1935;-62
2023/05/20 03:58:03;;;;;;;;;;;;;;;;;;5143155;27;2402;-57
2023/05/20 04:00:31;;;;;;;;;;;;;;;;;;5156460;27;1890;-60
2023/05/20 04:02:59;;;;;;;;;;;;;;;;;;5156520;27;1827;-51
2023/05/20 04:05:26;;;;;;;;;;;;;;;;;;5154996;27;2026;-53
2023/05/20 04:07:56;;;;;;;;;;;;;;;;;;5155149;27;1586;-60
2023/05/20 04:10:24;;;;;;;;;;;;;;;;;;5155422;27;1855;-62
2023/05/20 04:12:52;;;;;;;;;;;;;;;;;;5156854;27;2026;-60
2023/05/20 04:15:22;;;;;;;;;;;;;;;;;;5155241;27;1743;-64
2023/05/20 04:17:55;;;;;;;;;;;;;;;;;;5155031;27;2017;-57
2023/05/20 04:20:23;;;;;;;;;;;;;;;;;;5154402;27;1542;-67
2023/05/20 04:22:55;;;;;;;;;;;;;;;;;;5154939;27;2370;-54
2023/05/20 04:25:24;;;;;;;;;;;;;;;;;;5154997;27;1879;-59
2023/05/20 04:27:56;;;;;;;;;;;;;;;;;;5155191;27;1563;-64
2023/05/20 04:30:23;;;;;;;;;;;;;;;;;;5156324;27;1448;-66
2023/05/20 04:32:51;;;;;;;;;;;;;;;;;;5154538;27;1971;-57
2023/05/20 04:35:18;;;;;;;;;;;;;;;;;;5154657;27;1765;-61
2023/05/20 04:37:49;;;;;;;;;;;;;;;;;;5154313;27;1688;-59
2023/05/20 04:40:17;;;;;;;;;;;;;;;;;;5154465;27;2025;-62
2023/05/20 04:42:45;;;;;;;;;;;;;;;;;;5154224;27;1565;-52
2023/05/20 04:45:14;;;;;;;;;;;;;;;;;;5154465;27;1454;-52
2023/05/20 04:47:43;;;;;;;;;;;;;;;;;;5154462;27;1471;-51
2023/05/20 04:50:12;;;;;;;;;;;;;;;;;;5153992;27;1335;-66
2023/05/20 04:52:44;;;;;;;;;;;;;;;;;;5155475;27;1968;-54
2023/05/20 04:55:12;;;;;;;;;;;;;;;;;;5154154;27;1863;-49
2023/05/20 04:57:40;;;;;;;;;;;;;;;;;;5153885;27;2191;-54
2023/05/20 05:00:09;;;;;;;;;;;;;;;;;;5154059;27;2046;-65
2023/05/20 05:02:37;;;;;;;;;;;;;;;;;;5153972;27;1914;-54
2023/05/20 05:05:04;;;;;;;;;;;;;;;;;;5155298;27;1419;-59
2023/05/20 05:07:32;;;;;;;;;;;;;;;;;;5155213;27;2028;-49
2023/05/20 05:09:59;;;;;;;;;;;;;;;;;;5155256;27;1814;-51
2023/05/20 05:12:29;;;;;;;;;;;;;;;;;;5154176;27;2027;-62
2023/05/20 05:14:58;;;;;;;;;;;;;;;;;;5155372;27;1866;-56
2023/05/20 05:17:27;;;;;;;;;;;;;;;;;;5153741;27;1665;-54
2023/05/20 05:19:56;;;;;;;;;;;;;;;;;;5154039;27;2466;-65
2023/05/20 05:22:25;;;;;;;;;;;;;;;;;;5153823;27;1677;-63
2023/05/20 05:24:54;;;;;;;;;;;;;;;;;;5154818;27;1562;-52
2023/05/20 05:27:22;;;;;;;;;;;;;;;;;;5153438;27;1690;-56
2023/05/20 05:29:49;;;;;;;;;;;;;;;;;;5154836;27;2064;-48
2023/05/20 05:32:17;;;;;;;;;;;;;;;;;;5153323;27;1905;-54
2023/05/20 05:34:45;;;;;;;;;;;;;;;;;;5154904;27;1631;-55
2023/05/20 05:37:12;;;;;;;;;;;;;;;;;;5153313;27;2173;-57
2023/05/20 05:39:40;;;;;;;;;;;;;;;;;;5153477;27;2002;-57
2023/05/20 05:42:08;;;;;;;;;;;;;;;;;;5153414;27;2281;-60
2023/05/20 05:44:35;;;;;;;;;;;;;;;;;;5153079;27;1746;-56
2023/05/20 05:47:05;;;;;;;;;;;;;;;;;;5153262;27;1684;-49
2023/05/20 05:49:33;;;;;;;;;;;;;;;;;;5152990;27;1550;-55
2023/05/20 05:52:01;;;;;;;;;;;;;;;;;;5153181;27;2052;-52
2023/05/20 05:54:29;;;;;;;;;;;;;;;;;;5152601;27;1964;-52
2023/05/20 05:56:57;;;;;;;;;;;;;;;;;;5150024;27;2104;-59
2023/05/20 05:59:26;;;;;;;;;;;;;;;;;;5132258;27;1961;-53
2023/05/20 06:01:55;;;;;;;;;;;;;;;;;;5132173;27;1489;-51
2023/05/20 06:04:22;;;;;;;;;;;;;;;;;;5133198;27;1979;-52
2023/05/20 06:06:52;;;;;;;;;;;;;;;;;;5132105;27;1789;-51
2023/05/20 06:09:19;;;;;;;;;;;;;;;;;;5133256;27;1944;-63
2023/05/20 06:11:46;;;;;;;;;;;;;;;;;;5133533;27;1914;-59
2023/05/20 06:14:13;;;;;;;;;;;;;;;;;;5133270;27;1756;-49
2023/05/20 06:16:41;;;;;;;;;;;;;;;;;;5133105;27;1489;-48
2023/05/20 06:19:08;;;;;;;;;;;;;;;;;;5131847;27;1990;-67
2023/05/20 06:21:35;;;;;;;;;;;;;;;;;;5133037;27;1841;-48
2023/05/20 06:24:03;;;;;;;;;;;;;;;;;;5133233;27;1821;-51
2023/05/20 06:26:33;;;;;;;;;;;;;;;;;;5133495;27;2010;-50
2023/05/20 06:29:01;;;;;;;;;;;;;;;;;;5131775;27;1716;-50
2023/05/20 06:31:29;;;;;;;;;;;;;;;;;;5131441;27;1995;-62
2023/05/20 06:33:56;;;;;;;;;;;;;;;;;;5131599;27;1936;-59
2023/05/20 06:36:25;;;;;;;;;;;;;;;;;;5131698;27;1839;-53
2023/05/20 06:38:54;;;;;;;;;;;;;;;;;;5132663;27;1997;-52
2023/05/20 06:41:21;;;;;;;;;;;;;;;;;;5132758;27;1537;-53
2023/05/20 06:43:50;;;;;;;;;;;;;;;;;;5132602;27;1986;-61
2023/05/20 06:46:54;;;;;;;;;;;;;;;;;;5089650;28;2328;-55
2023/05/20 06:49:22;;;;;;;;;;;;;;;;;;5122526;27;1877;-63
2023/05/20 06:51:50;;;;;;;;;;;;;;;;;;5132545;27;1937;-63
2023/05/20 06:54:17;;;;;;;;;;;;;;;;;;5131507;27;1878;-52
2023/05/20 06:56:45;;;;;;;;;;;;;;;;;;5132154;27;1831;-50
2023/05/20 06:59:13;;;;;;;;;;;;;;;;;;5151774;27;2177;-48
2023/05/20 07:01:42;;;;;;;;;;;;;;;;;;5151745;27;2079;-53
2023/05/20 07:04:10;;;;;;;;;;;;;;;;;;5153187;27;1875;-50
2023/05/20 07:06:38;;;;;;;;;;;;;;;;;;5150840;27;2280;-48
2023/05/20 07:09:05;;;;;;;;;;;;;;;;;;5153121;27;2300;-49
2023/05/20 07:11:32;;;;;;;;;;;;;;;;;;5151858;27;1820;-64
2023/05/20 07:14:00;;;;;;;;;;;;;;;;;;5152987;27;1973;-48
2023/05/20 07:16:31;;;;;;;;;;;;;;;;;;5151562;27;1713;-59
2023/05/20 07:18:58;;;;;;;;;;;;;;;;;;5151590;27;2176;-51
2023/05/20 07:21:26;;;;;;;;;;;;;;;;;;5151638;27;1714;-48
2023/05/20 07:24:16;;;;;;;;;;;;;;;;;;5132407;27;2055;-56
2023/05/20 07:26:44;;;;;;;;;;;;;;;;;;5152827;27;1556;-54
2023/05/20 07:29:11;;;;;;;;;;;;;;;;;;5152694;27;1975;-64
2023/05/20 07:31:41;;;;;;;;;;;;;;;;;;5152725;27;1978;-58
2023/05/20 07:34:08;;;;;;;;;;;;;;;;;;5152792;27;1973;-45
2023/05/20 07:36:37;;;;;;;;;;;;;;;;;;5151615;27;1939;-56
2023/05/20 07:39:05;;;;;;;;;;;;;;;;;;5152758;27;1540;-50
2023/05/20 07:41:35;;;;;;;;;;;;;;;;;;5151535;27;2064;-49
2023/05/20 07:44:03;;;;;;;;;;;;;;;;;;5151355;27;1878;-56
2023/05/20 07:46:33;;;;;;;;;;;;;;;;;;5151440;27;2161;-61
2023/05/20 07:49:02;;;;;;;;;;;;;;;;;;5153476;27;1942;-51
2023/05/20 07:51:30;;;;;;;;;;;;;;;;;;5154538;27;1426;-57
2023/05/20 07:53:58;;;;;;;;;;;;;;;;;;5154607;27;2040;-57
2023/05/20 07:56:25;;;;;;;;;;;;;;;;;;5154648;27;1645;-50
2023/05/20 07:58:54;;;;;;;;;;;;;;;;;;5153624;27;1725;-52
2023/05/20 08:01:23;;;;;;;;;;;;;;;;;;5134109;27;1661;-47
2023/05/20 08:03:51;;;;;;;;;;;;;;;;;;5152377;27;1626;-57
2023/05/20 08:06:23;;;;;;;;;;;;;;;;;;5143981;27;2021;-50
2023/05/20 08:08:53;;;;;;;;;;;;;;;;;;5173166;27;2105;-52
2023/05/20 08:11:25;;;;;;;;;;;;;;;;;;5153813;27;1888;-51
2023/05/20 08:13:53;;;;;;;;;;;;;;;;;;5154434;27;2627;-49
2023/05/20 08:16:22;;;;;;;;;;;;;;;;;;5154692;27;1819;-50
2023/05/20 08:18:50;;;;;;;;;;;;;;;;;;5156542;27;1456;-57
2023/05/20 08:21:20;;;;;;;;;;;;;;;;;;5158557;27;1849;-51
2023/05/20 08:23:48;;;;;;;;;;;;;;;;;;5158391;27;2092;-57
2023/05/20 08:26:16;;;;;;;;;;;;;;;;;;5158345;27;2310;-47
2023/05/20 08:28:43;;;;;;;;;;;;;;;;;;5158423;27;1864;-47
2023/05/20 08:31:10;;;;;;;;;;;;;;;;;;5158165;27;2207;-48
2023/05/20 08:33:39;;;;;;;;;;;;;;;;;;5158163;27;2049;-55
2023/05/20 08:36:07;;;;;;;;;;;;;;;;;;5158165;27;2428;-51
2023/05/20 08:38:35;;;;;;;;;;;;;;;;;;5158222;27;1930;-47
2023/05/20 08:41:02;;;;;;;;;;;;;;;;;;5157835;27;1849;-53
2023/05/20 08:43:31;;;;;;;;;;;;;;;;;;5158058;27;1776;-47
2023/05/20 08:46:01;;;;;;;;;;;;;;;;;;5157664;27;1330;-52
2023/05/20 08:48:30;;;;;;;;;;;;;;;;;;5140586;27;1925;-46
2023/05/20 08:50:58;;;;;;;;;;;;;;;;;;5176191;27;2168;-45
2023/05/20 08:53:25;;;;;;;;;;;;;;;;;;5176048;27;1905;-48
2023/05/20 08:55:56;;;;;;;;;;;;;;;;;;5176570;27;1962;-47
2023/05/20 08:58:27;;;;;;;;;;;;;;;;;;5160366;27;2018;-49
2023/05/20 09:00:55;;;;;;;;;;;;;;;;;;5155538;27;2181;-52
2023/05/20 09:03:23;;;;;;;;;;;;;;;;;;5155654;27;1872;-49
2023/05/20 09:05:50;;;;;;;;;;;;;;;;;;5155529;27;1972;-47
2023/05/20 09:08:18;;;;;;;;;;;;;;;;;;5155579;27;2018;-48
2023/05/20 09:10:46;;;;;;;;;;;;;;;;;;5155150;27;1903;-50
2023/05/20 09:13:13;;;;;;;;;;;;;;;;;;5155267;27;1917;-62
2023/05/20 09:15:40;;;;;;;;;;;;;;;;;;5155382;27;1445;-51
2023/05/20 09:18:08;;;;;;;;;;;;;;;;;;5155088;27;1739;-46
2023/05/20 09:20:39;;;;;;;;;;;;;;;;;;5155262;27;2035;-47
2023/05/20 09:23:08;;;;;;;;;;;;;;;;;;5154916;27;1685;-49
2023/05/20 09:25:36;;;;;;;;;;;;;;;;;;5154809;27;1945;-49
2023/05/20 09:28:06;;;;;;;;;;;;;;;;;;5154927;27;1624;-49
2023/05/20 09:30:33;;;;;;;;;;;;;;;;;;5153835;27;1665;-50
2023/05/20 09:33:03;;;;;;;;;;;;;;;;;;5154793;27;1905;-48
2023/05/20 09:35:33;;;;;;;;;;;;;;;;;;5154780;27;1841;-46
2023/05/20 09:38:02;;;;;;;;;;;;;;;;;;5154563;27;2439;-49
2023/05/20 09:40:29;;;;;;;;;;;;;;;;;;5154642;27;1560;-48
2023/05/20 09:42:56;;;;;;;;;;;;;;;;;;5154635;27;1250;-47
2023/05/20 09:45:24;;;;;;;;;;;;;;;;;;5168558;27;1546;-49
2023/05/20 09:47:52;;;;;;;;;;;;;;;;;;5174766;27;1740;-54
2023/05/20 09:50:20;;;;;;;;;;;;;;;;;;5175027;27;1568;-56
2023/05/20 09:52:51;;;;;;;;;;;;;;;;;;5175137;27;1921;-50
2023/05/20 09:55:19;;;;;;;;;;;;;;;;;;5174993;27;2158;-48
2023/05/20 09:57:46;;;;;;;;;;;;;;;;;;5175344;27;2133;-52
2023/05/20 10:00:16;;;;;;;;;;;;;;;;;;5175401;27;1873;-53
2023/05/20 10:02:44;;;;;;;;;;;;;;;;;;5175262;27;1705;-55
2023/05/20 10:05:23;;;;;;;;;;;;;;;;;;5174702;27;1526;-52
2023/05/20 10:07:56;;;;;;;;;;;;;;;;;;5175287;27;2030;-48
2023/05/20 10:10:26;;;;;;;;;;;;;;;;;;5174607;27;2095;-50
2023/05/20 10:13:06;;;;;;;;;;;;;;;;;;5174809;27;2134;-47
2023/05/20 10:15:56;;;;;;;;;;;;;;;;;;5175242;27;2064;-48
2023/05/20 10:18:37;;;;;;;;;;;;;;;;;;5174514;27;2054;-47
2023/05/20 10:21:13;;;;;;;;;;;;;;;;;;5174730;27;1978;-49
2023/05/20 10:23:40;;;;;;;;;;;;;;;;;;5175155;27;2005;-48
2023/05/20 10:26:08;;;;;;;;;;;;;;;;;;5174572;27;1886;-63
2023/05/20 10:28:36;;;;;;;;;;;;;;;;;;5174730;27;2015;-49
2023/05/20 10:31:24;;;;;;;;;;;;;;;;;;5174707;27;2099;-50
2023/05/20 10:33:52;;;;;;;;;;;;;;;;;;5174550;27;1913;-49
2023/05/20 10:36:24;;;;;;;;;;;;;;;;;;5174466;27;1771;-47
2023/05/20 10:38:54;;;;;;;;;;;;;;;;;;5174265;27;1530;-51
2023/05/20 10:41:26;;;;;;;;;;;;;;;;;;5174158;27;2232;-47
2023/05/20 10:44:03;;;;;;;;;;;;;;;;;;5174258;27;1834;-57
2023/05/20 10:46:31;;;;;;;;;;;;;;;;;;5173913;27;1906;-49
2023/05/20 10:49:18;;;;;;;;;;;;;;;;;;5174045;27;1604;-60
2023/05/20 10:51:48;;;;;;;;;;;;;;;;;;5174078;27;2160;-57
2023/05/20 10:54:15;;;;;;;;;;;;;;;;;;5173667;27;1913;-46
2023/05/20 10:56:50;;;;;;;;;;;;;;;;;;5174027;27;1815;-51
2023/05/20 10:59:18;;;;;;;;;;;;;;;;;;5174252;27;1803;-53
2023/05/20 11:01:46;;;;;;;;;;;;;;;;;;5174096;27;2018;-53
2023/05/20 11:04:14;;;;;;;;;;;;;;;;;;5174030;27;2016;-59
2023/05/20 11:06:54;;;;;;;;;;;;;;;;;;5173993;27;1795;-57
2023/05/20 11:09:21;;;;;;;;;;;;;;;;;;5174335;27;2011;-55
2023/05/20 11:11:49;;;;;;;;;;;;;;;;;;5174173;27;1609;-63
2023/05/20 11:14:18;;;;;;;;;;;;;;;;;;5174472;27;2057;-57
2023/05/20 11:16:49;;;;;;;;;;;;;;;;;;5173869;27;1981;-49
2023/05/20 11:19:20;;;;;;;;;;;;;;;;;;5174203;27;2153;-50
2023/05/20 11:21:47;;;;;;;;;;;;;;;;;;5173702;27;1963;-58
2023/05/20 11:24:27;;;;;;;;;;;;;;;;;;5173575;27;1855;-48
2023/05/20 11:26:56;;;;;;;;;;;;;;;;;;5173591;27;1914;-52
2023/05/20 11:29:25;;;;;;;;;;;;;;;;;;5173476;27;1851;-47
2023/05/20 11:31:52;;;;;;;;;;;;;;;;;;5173676;27;1693;-50
2023/05/20 11:34:22;;;;;;;;;;;;;;;;;;5173827;27;1905;-57
2023/05/20 11:36:58;;;;;;;;;;;;;;;;;;5172864;27;1716;-51
2023/05/20 11:39:28;;;;;;;;;;;;;;;;;;5173606;27;1636;-50
2023/05/20 11:41:56;;;;;;;;;;;;;;;;;;5173901;27;1822;-48
2023/05/20 11:44:24;;;;;;;;;;;;;;;;;;5174083;27;2276;-55
2023/05/20 11:46:58;;;;;;;;;;;;;;;;;;5173655;27;1891;-48
2023/05/20 11:49:25;;;;;;;;;;;;;;;;;;5173194;27;1698;-55
2023/05/20 11:51:52;;;;;;;;;;;;;;;;;;5173403;27;2038;-51
2023/05/20 11:54:21;;;;;;;;;;;;;;;;;;5177016;27;2057;-52
2023/05/20 11:56:48;;;;;;;;;;;;;;;;;;5175951;27;1826;-50
2023/05/20 11:59:16;;;;;;;;;;;;;;;;;;5156659;27;1563;-63
2023/05/20 12:01:43;;;;;;;;;;;;;;;;;;5156484;27;2163;-47
2023/05/20 12:04:14;;;;;;;;;;;;;;;;;;5156567;27;1614;-51
2023/05/20 12:06:43;;;;;;;;;;;;;;;;;;5156490;27;1617;-48
2023/05/20 12:09:10;;;;;;;;;;;;;;;;;;5156487;27;1812;-51
2023/05/20 12:11:39;;;;;;;;;;;;;;;;;;5156190;27;1978;-51
2023/05/20 12:14:08;;;;;;;;;;;;;;;;;;5156254;27;2026;-47
2023/05/20 12:16:35;;;;;;;;;;;;;;;;;;5156412;27;1905;-48
2023/05/20 12:19:03;;;;;;;;;;;;;;;;;;5156242;27;1600;-48
2023/05/20 12:21:30;;;;;;;;;;;;;;;;;;5156263;27;2090;-50
2023/05/20 12:23:58;;;;;;;;;;;;;;;;;;5156298;27;1913;-53
2023/05/20 12:26:26;;;;;;;;;;;;;;;;;;5156199;27;1716;-47
2023/05/20 12:28:53;;;;;;;;;;;;;;;;;;5155885;27;1977;-51
2023/05/20 12:31:21;;;;;;;;;;;;;;;;;;5156085;27;1707;-48
2023/05/20 12:33:48;;;;;;;;;;;;;;;;;;5137719;27;2047;-47
2023/05/20 12:36:15;;;;;;;;;;;;;;;;;;5155984;27;2295;-48
2023/05/20 12:38:42;;;;;;;;;;;;;;;;;;5155809;27;2133;-50
2023/05/20 12:41:10;;;;;;;;;;;;;;;;;;5155819;27;2242;-51
2023/05/20 12:43:37;;;;;;;;;;;;;;;;;;5155971;27;1979;-49
2023/05/20 12:46:05;;;;;;;;;;;;;;;;;;5155576;27;1776;-51
2023/05/20 12:48:32;;;;;;;;;;;;;;;;;;5137172;27;1756;-52
2023/05/20 12:50:59;;;;;;;;;;;;;;;;;;5173196;27;1946;-60
2023/05/20 12:53:26;;;;;;;;;;;;;;;;;;5176588;27;1996;-48
2023/05/20 12:55:54;;;;;;;;;;;;;;;;;;5176273;27;1993;-47
2023/05/20 12:58:21;;;;;;;;;;;;;;;;;;5161225;27;1735;-55
2023/05/20 13:00:48;;;;;;;;;;;;;;;;;;5154981;27;2011;-55
2023/05/20 13:03:16;;;;;;;;;;;;;;;;;;5155335;27;1925;-47
2023/05/20 13:05:43;;;;;;;;;;;;;;;;;;5154042;27;1337;-50
2023/05/20 13:08:11;;;;;;;;;;;;;;;;;;5155142;27;1712;-49
2023/05/20 13:10:38;;;;;;;;;;;;;;;;;;5136740;27;2140;-50
2023/05/20 13:13:06;;;;;;;;;;;;;;;;;;5155053;27;1528;-50
2023/05/20 13:15:33;;;;;;;;;;;;;;;;;;5155120;27;1909;-57
2023/05/20 13:18:02;;;;;;;;;;;;;;;;;;5155266;27;1689;-46
2023/05/20 13:20:29;;;;;;;;;;;;;;;;;;5155359;27;1397;-47
2023/05/20 13:22:57;;;;;;;;;;;;;;;;;;5155198;27;1764;-48
2023/05/20 13:25:24;;;;;;;;;;;;;;;;;;5136375;27;2148;-50
2023/05/20 13:27:51;;;;;;;;;;;;;;;;;;5155016;27;1947;-53
2023/05/20 13:30:18;;;;;;;;;;;;;;;;;;5155093;27;1707;-50
2023/05/20 13:32:46;;;;;;;;;;;;;;;;;;5154839;27;2026;-49
2023/05/20 13:35:13;;;;;;;;;;;;;;;;;;5154663;27;1995;-50
2023/05/20 13:37:40;;;;;;;;;;;;;;;;;;5155316;27;2088;-49
2023/05/20 13:40:08;;;;;;;;;;;;;;;;;;5154801;27;1805;-51
2023/05/20 13:42:36;;;;;;;;;;;;;;;;;;5154625;27;2164;-49
2023/05/20 13:45:05;;;;;;;;;;;;;;;;;;5154808;27;2046;-47
2023/05/20 13:47:32;;;;;;;;;;;;;;;;;;5154520;27;1962;-58
2023/05/20 13:50:00;;;;;;;;;;;;;;;;;;5154460;27;1734;-49
2023/05/20 13:52:28;;;;;;;;;;;;;;;;;;5154344;27;1959;-47
2023/05/20 13:54:56;;;;;;;;;;;;;;;;;;5136123;27;2237;-50
2023/05/20 13:57:23;;;;;;;;;;;;;;;;;;5156509;27;1791;-52
2023/05/20 13:59:51;;;;;;;;;;;;;;;;;;5164631;27;1909;-49
2023/05/20 14:02:20;;;;;;;;;;;;;;;;;;5172411;27;2071;-50
2023/05/20 14:04:48;;;;;;;;;;;;;;;;;;5175022;27;1888;-48
2023/05/20 14:07:15;;;;;;;;;;;;;;;;;;5175161;27;1650;-52
2023/05/20 14:09:42;;;;;;;;;;;;;;;;;;5175048;27;1712;-58
2023/05/20 14:12:10;;;;;;;;;;;;;;;;;;5174927;27;1900;-48
2023/05/20 14:14:37;;;;;;;;;;;;;;;;;;5174690;27;2068;-49
2023/05/20 14:17:04;;;;;;;;;;;;;;;;;;5174537;27;1912;-53
2023/05/20 14:19:31;;;;;;;;;;;;;;;;;;5175228;27;1795;-47
2023/05/20 14:22:00;;;;;;;;;;;;;;;;;;5174993;27;1963;-49
2023/05/20 14:24:27;;;;;;;;;;;;;;;;;;5174720;27;2123;-46
2023/05/20 14:26:54;;;;;;;;;;;;;;;;;;5174745;27;1451;-48
2023/05/20 14:29:21;;;;;;;;;;;;;;;;;;5174857;27;1803;-52
2023/05/20 14:31:48;;;;;;;;;;;;;;;;;;5174494;27;1419;-49
2023/05/20 14:34:16;;;;;;;;;;;;;;;;;;5174443;27;1974;-52
2023/05/20 14:36:43;;;;;;;;;;;;;;;;;;5174567;27;1446;-58
2023/05/20 14:39:10;;;;;;;;;;;;;;;;;;5174434;27;1936;-48
2023/05/20 14:41:37;;;;;;;;;;;;;;;;;;5174394;27;1783;-57
2023/05/20 14:44:05;;;;;;;;;;;;;;;;;;5174704;27;1777;-62
2023/05/20 14:46:32;;;;;;;;;;;;;;;;;;5174389;27;2024;-67
2023/05/20 14:49:00;;;;;;;;;;;;;;;;;;5174427;27;2021;-48
2023/05/20 14:51:27;;;;;;;;;;;;;;;;;;5155474;27;1417;-47
2023/05/20 14:53:54;;;;;;;;;;;;;;;;;;5173924;27;2215;-51
2023/05/20 14:56:22;;;;;;;;;;;;;;;;;;5173968;27;1846;-58
2023/05/20 14:58:49;;;;;;;;;;;;;;;;;;5173825;27;1861;-59
2023/05/20 15:01:16;;;;;;;;;;;;;;;;;;5174000;27;1634;-57
2023/05/20 15:03:43;;;;;;;;;;;;;;;;;;5173907;27;2278;-47
2023/05/20 15:06:11;;;;;;;;;;;;;;;;;;5174206;27;1876;-46
2023/05/20 15:08:38;;;;;;;;;;;;;;;;;;5174108;27;1981;-58
2023/05/20 15:11:05;;;;;;;;;;;;;;;;;;5174363;27;2026;-51
2023/05/20 15:13:33;;;;;;;;;;;;;;;;;;5173900;27;2219;-48
2023/05/20 15:16:00;;;;;;;;;;;;;;;;;;5173862;27;1909;-58
2023/05/20 15:18:27;;;;;;;;;;;;;;;;;;5174019;27;1968;-47
2023/05/20 15:20:54;;;;;;;;;;;;;;;;;;5173825;27;1697;-48
2023/05/20 15:23:21;;;;;;;;;;;;;;;;;;5155108;27;2251;-54
2023/05/20 15:25:49;;;;;;;;;;;;;;;;;;5173718;27;1642;-50
2023/05/20 15:28:18;;;;;;;;;;;;;;;;;;5172747;27;1265;-52
2023/05/20 15:30:50;;;;;;;;;;;;;;;;;;5173788;27;1438;-51
2023/05/20 15:33:17;;;;;;;;;;;;;;;;;;5173661;27;1680;-48
2023/05/20 15:35:47;;;;;;;;;;;;;;;;;;5173347;27;1905;-48
2023/05/20 15:38:15;;;;;;;;;;;;;;;;;;5173465;27;2048;-49
2023/05/20 15:40:42;;;;;;;;;;;;;;;;;;5173493;27;2168;-46
2023/05/20 15:43:09;;;;;;;;;;;;;;;;;;5173492;27;1739;-62
2023/05/20 15:45:36;;;;;;;;;;;;;;;;;;5173671;27;1825;-48
2023/05/20 15:48:04;;;;;;;;;;;;;;;;;;5173710;27;1834;-46
2023/05/20 15:50:31;;;;;;;;;;;;;;;;;;5173304;27;2003;-52
2023/05/20 15:52:59;;;;;;;;;;;;;;;;;;5154382;27;2087;-50
2023/05/20 15:55:26;;;;;;;;;;;;;;;;;;5172999;27;1971;-51
2023/05/20 15:57:53;;;;;;;;;;;;;;;;;;5173305;27;1837;-47
2023/05/20 16:00:21;;;;;;;;;;;;;;;;;;5173564;27;2291;-51
2023/05/20 16:02:48;;;;;;;;;;;;;;;;;;5173161;27;2048;-44
2023/05/20 16:05:16;;;;;;;;;;;;;;;;;;5155273;27;1867;-52
2023/05/20 16:07:45;;;;;;;;;;;;;;;;;;5173174;27;1612;-47
2023/05/20 16:10:12;;;;;;;;;;;;;;;;;;5173488;27;1640;-52
2023/05/20 16:12:40;;;;;;;;;;;;;;;;;;5154704;27;2000;-51
2023/05/20 16:15:08;;;;;;;;;;;;;;;;;;5173174;27;2059;-50
2023/05/20 16:17:36;;;;;;;;;;;;;;;;;;5173402;27;1893;-51
2023/05/20 16:20:05;;;;;;;;;;;;;;;;;;5173004;27;2052;-49
2023/05/20 16:22:33;;;;;;;;;;;;;;;;;;5173242;27;1833;-55
2023/05/20 16:25:01;;;;;;;;;;;;;;;;;;5172980;27;1620;-51
2023/05/20 16:27:29;;;;;;;;;;;;;;;;;;5173245;27;1962;-51
2023/05/20 16:29:56;;;;;;;;;;;;;;;;;;5173173;27;2196;-55
2023/05/20 16:32:26;;;;;;;;;;;;;;;;;;5173088;27;1999;-49
2023/05/20 16:34:53;;;;;;;;;;;;;;;;;;5172905;27;1976;-51
2023/05/20 16:37:20;;;;;;;;;;;;;;;;;;5172869;27;2035;-49
2023/05/20 16:39:48;;;;;;;;;;;;;;;;;;5175496;27;1935;-56
2023/05/20 16:42:15;;;;;;;;;;;;;;;;;;5176260;27;1808;-48
2023/05/20 16:44:42;;;;;;;;;;;;;;;;;;5177030;27;1679;-50
2023/05/20 16:47:09;;;;;;;;;;;;;;;;;;5175860;27;1857;-50
2023/05/20 16:49:37;;;;;;;;;;;;;;;;;;5157346;27;2292;-49
2023/05/20 16:52:05;;;;;;;;;;;;;;;;;;5176533;27;1709;-52
2023/05/20 16:54:34;;;;;;;;;;;;;;;;;;5176339;27;2115;-53
2023/05/20 16:57:02;;;;;;;;;;;;;;;;;;5176855;27;2130;-51
2023/05/20 16:59:30;;;;;;;;;;;;;;;;;;5176293;27;1939;-60
2023/05/20 17:01:58;;;;;;;;;;;;;;;;;;5175639;27;1927;-50
2023/05/20 17:04:25;;;;;;;;;;;;;;;;;;5157625;27;1796;-54
2023/05/20 17:06:52;;;;;;;;;;;;;;;;;;5176347;27;2125;-53
2023/05/20 17:09:19;;;;;;;;;;;;;;;;;;5176109;27;2022;-55
2023/05/20 17:11:47;;;;;;;;;;;;;;;;;;5176291;27;1870;-54